Time;durP1;ratioP1;P1;durP2;ratioP2;P2;SDS_P1;SDS_P2;PMS_P1;PMS_P2;Temp;Humidity;BMP_temperature;BMP_pressure;BME280_temperature;BME280_humidity;BME280_pressure;Samples;Min_cycle;Max_cycle;Signal;HPM_P1;HPM_P2
2022/12/12 00:01:48;;;;;;;31.40;15.40;;;;;;;-2.36;86.99;98748.80;126505;1299;99339;-77
2022/12/12 00:04:51;;;;;;;33.80;16.40;;;;;;;-2.33;86.96;98752.81;126472;1290;99784;-77
2022/12/12 00:07:53;;;;;;;32.60;16.20;;;;;;;-2.40;86.80;98750.48;126586;1289;99360;-78
2022/12/12 00:10:56;;;;;;;40.50;19.40;;;;;;;-2.45;86.61;98751.88;126372;1291;99487;-78
2022/12/12 00:13:59;;;;;;;32.10;15.20;;;;;;;-2.52;86.67;98751.02;126249;1285;99463;-77
2022/12/12 00:17:03;;;;;;;36.10;16.20;;;;;;;-2.60;86.81;98747.89;126206;1290;99346;-76
2022/12/12 00:20:07;;;;;;;35.90;16.20;;;;;;;-2.63;87.08;98743.77;126230;1290;99491;-76
2022/12/12 00:23:10;;;;;;;80.60;34.40;;;;;;;-2.69;86.87;98739.30;126387;1296;99368;-76
2022/12/12 00:26:17;;;;;;;51.00;26.20;;;;;;;-2.72;87.08;98741.11;126262;1290;102653;-75
2022/12/12 00:29:19;;;;;;;32.10;15.60;;;;;;;-2.68;87.49;98742.71;126264;1287;99337;-78
2022/12/12 00:32:22;;;;;;;35.10;16.20;;;;;;;-2.62;87.46;98741.41;126286;1299;99397;-76
2022/12/12 00:35:25;;;;;;;31.60;14.80;;;;;;;-2.59;87.34;98738.58;126311;1283;99466;-78
2022/12/12 00:38:28;;;;;;;29.20;14.20;;;;;;;-2.57;87.16;98738.25;126555;1284;99478;-78
2022/12/12 00:41:30;;;;;;;25.00;13.30;;;;;;;-2.57;87.38;98739.53;126292;1285;100512;-79
2022/12/12 00:44:33;;;;;;;27.80;14.00;;;;;;;-2.66;87.95;98737.69;126255;1278;99318;-79
2022/12/12 00:47:36;;;;;;;30.80;14.00;;;;;;;-2.62;88.02;98735.36;126303;1291;101607;-78
2022/12/12 00:50:38;;;;;;;24.00;12.40;;;;;;;-2.58;87.78;98732.77;126317;1285;99573;-78
2022/12/12 00:53:41;;;;;;;23.90;12.20;;;;;;;-2.47;87.73;98733.60;126212;1283;100471;-78
2022/12/12 00:56:43;;;;;;;23.60;12.40;;;;;;;-2.49;87.09;98732.19;126199;1292;99801;-79
2022/12/12 00:59:46;;;;;;;23.80;12.40;;;;;;;-2.56;86.94;98731.79;126414;1283;100478;-79
2022/12/12 01:02:49;;;;;;;26.60;13.30;;;;;;;-2.62;87.86;98731.48;126384;1285;99350;-78
2022/12/12 01:05:52;;;;;;;25.80;12.60;;;;;;;-2.69;88.07;98728.67;126360;1285;99352;-79
2022/12/12 01:08:54;;;;;;;29.40;13.10;;;;;;;-2.71;87.97;98734.05;126323;1293;100811;-76
2022/12/12 01:11:57;;;;;;;24.80;13.10;;;;;;;-2.69;88.13;98733.73;126196;1277;99473;-78
2022/12/12 01:14:59;;;;;;;26.00;12.60;;;;;;;-2.65;88.47;98737.13;126350;1285;99732;-78
2022/12/12 01:18:02;;;;;;;21.60;11.50;;;;;;;-2.60;88.13;98736.39;126230;1284;112541;-77
2022/12/12 01:21:08;;;;;;;25.80;12.90;;;;;;;-2.54;88.14;98731.66;126267;1285;99366;-78
2022/12/12 01:24:11;;;;;;;33.70;16.40;;;;;;;-2.49;88.15;98725.70;125475;1283;1127811;-78
2022/12/12 01:27:13;;;;;;;58.40;27.50;;;;;;;-2.47;87.94;98720.73;126350;1292;99788;-78
2022/12/12 01:30:19;;;;;;;47.10;21.40;;;;;;;-2.43;88.04;98716.24;126416;1285;99438;-77
2022/12/12 01:33:22;;;;;;;34.50;17.40;;;;;;;-2.42;88.16;98711.43;126504;1285;112542;-78
2022/12/12 01:36:24;;;;;;;43.40;21.30;;;;;;;-2.45;87.97;98710.26;126462;1285;99380;-78
2022/12/12 01:39:27;;;;;;;35.50;17.10;;;;;;;-2.53;87.83;98704.95;126392;1284;99464;-78
2022/12/12 01:42:30;;;;;;;33.50;16.80;;;;;;;-2.55;88.06;98705.06;126532;1294;99365;-78
2022/12/12 01:46:24;;;;;;;25.60;13.50;;;;;;;-2.50;88.22;98703.83;126416;1285;99367;-77
2022/12/12 01:49:26;;;;;;;53.50;24.90;;;;;;;-2.44;88.04;98704.13;126121;1286;112534;-78
2022/12/12 01:52:34;;;;;;;45.10;20.90;;;;;;;-2.47;88.60;98703.48;126513;1283;100539;-77
2022/12/12 01:55:37;;;;;;;55.90;24.60;;;;;;;-2.53;88.81;98701.98;126483;1283;112543;-77
2022/12/12 01:58:41;;;;;;;47.10;19.10;;;;;;;-2.56;88.82;98700.30;126187;1285;99873;-78
2022/12/12 02:01:44;;;;;;;48.40;22.50;;;;;;;-2.58;88.28;98703.54;126402;1293;112553;-77
2022/12/12 02:04:47;;;;;;;23.50;12.90;;;;;;;-2.59;88.71;98702.21;126503;1285;112668;-77
2022/12/12 02:07:50;;;;;;;18.50;9.90;;;;;;;-2.54;88.98;98706.56;126454;1285;99319;-77
2022/12/12 02:10:52;;;;;;;18.40;9.70;;;;;;;-2.45;88.83;98709.58;126522;1285;100406;-79
2022/12/12 02:13:56;;;;;;;17.50;10.40;;;;;;;-2.36;88.49;98708.96;126493;1283;99482;-78
2022/12/12 02:17:52;;;;;;;19.00;9.90;;;;;;;-2.30;88.46;98707.33;126472;1284;113690;-77
2022/12/12 02:21:10;;;;;;;19.80;10.20;;;;;;;-2.16;88.48;98706.13;126090;1288;112273;-78
2022/12/12 02:24:38;;;;;;;18.30;10.30;;;;;;;-2.09;88.28;98704.25;126132;1286;112729;-78
2022/12/12 02:28:14;;;;;;;15.90;9.20;;;;;;;-2.04;88.17;98698.78;126178;1295;113800;-77
2022/12/12 02:31:24;;;;;;;14.90;8.80;;;;;;;-2.01;88.33;98705.39;126497;1288;112462;-78
2022/12/12 02:34:35;;;;;;;16.10;10.00;;;;;;;-2.01;88.19;98709.52;126178;1288;112076;-78
2022/12/12 02:37:49;;;;;;;17.50;9.00;;;;;;;-2.02;87.93;98711.90;126194;1287;113841;-78
2022/12/12 02:40:58;;;;;;;17.70;10.40;;;;;;;-2.03;88.00;98711.95;126374;1290;113149;-78
2022/12/12 02:44:13;;;;;;;14.60;7.60;;;;;;;-2.00;88.19;98714.20;126261;1279;112454;-77
2022/12/12 02:47:22;;;;;;;13.40;8.10;;;;;;;-1.96;88.35;98711.16;126478;1283;112522;-77
2022/12/12 02:50:29;;;;;;;15.60;9.10;;;;;;;-1.89;88.17;98708.53;126367;1283;113412;-76
2022/12/12 02:53:31;;;;;;;14.70;8.50;;;;;;;-1.82;88.46;98705.40;126220;1293;112474;-76
2022/12/12 02:56:46;;;;;;;14.10;8.10;;;;;;;-1.75;88.11;98709.42;126288;1276;100599;-77
2022/12/12 02:59:52;;;;;;;15.20;9.00;;;;;;;-1.75;87.92;98704.01;126283;1285;112521;-78
2022/12/12 03:10:29;;;;;;;20.10;9.90;;;;;;;-1.85;88.36;98696.73;126288;1286;112694;-77
2022/12/12 03:13:41;;;;;;;15.40;8.20;;;;;;;-1.77;88.43;98697.52;126255;1294;112596;-77
2022/12/12 03:16:54;;;;;;;16.40;8.70;;;;;;;-1.70;88.80;98691.96;126307;1283;112520;-76
2022/12/12 03:20:05;;;;;;;20.80;10.80;;;;;;;-1.60;88.62;98688.96;126311;1293;112522;-77
2022/12/12 03:23:15;;;;;;;20.80;9.70;;;;;;;-1.55;88.61;98684.73;126262;1293;113779;-76
2022/12/12 03:26:24;;;;;;;16.70;9.40;;;;;;;-1.49;88.42;98681.88;126380;1285;112557;-80
2022/12/12 03:29:31;;;;;;;16.00;9.60;;;;;;;-1.49;88.25;98681.02;126318;1285;111555;-76
2022/12/12 03:32:39;;;;;;;17.50;9.80;;;;;;;-1.47;88.04;98679.81;126286;1292;114380;-77
2022/12/12 03:35:46;;;;;;;17.90;10.00;;;;;;;-1.46;88.18;98679.23;126658;1292;111606;-78
2022/12/12 03:38:56;;;;;;;15.80;8.20;;;;;;;-1.47;88.09;98680.30;126346;1292;112343;-81
2022/12/12 03:42:05;;;;;;;17.10;9.50;;;;;;;-1.47;87.91;98678.09;126680;1286;112674;-78
2022/12/12 03:45:13;;;;;;;17.40;9.30;;;;;;;-1.45;88.13;98677.73;126401;1285;112642;-77
2022/12/12 03:48:24;;;;;;;14.60;8.10;;;;;;;-1.38;88.42;98675.12;126300;1293;112583;-75
2022/12/12 03:51:29;;;;;;;16.60;9.40;;;;;;;-1.30;88.14;98673.99;126336;1278;112575;-76
2022/12/12 03:54:37;;;;;;;14.50;9.30;;;;;;;-1.26;88.27;98673.54;126474;1294;112372;-78
2022/12/12 03:57:46;;;;;;;14.90;9.00;;;;;;;-1.28;88.12;98670.67;126338;1284;112582;-77
2022/12/12 04:00:52;;;;;;;18.00;10.50;;;;;;;-1.33;88.17;98670.23;126493;1292;112500;-77
2022/12/12 04:04:00;;;;;;;16.20;9.70;;;;;;;-1.34;88.52;98668.71;126587;1285;114050;-77
2022/12/12 04:07:08;;;;;;;20.60;12.10;;;;;;;-1.36;88.32;98670.63;126558;1294;113603;-77
2022/12/12 04:13:39;;;;;;;18.70;10.30;;;;;;;-1.35;88.70;98664.80;126583;1285;114082;-77
2022/12/12 04:16:45;;;;;;;18.90;10.00;;;;;;;-1.23;88.72;98666.47;127001;1285;112480;-78
2022/12/12 04:23:30;;;;;;;23.70;11.30;;;;;;;-1.08;89.51;98664.61;126516;1284;112418;-76
2022/12/12 04:26:39;;;;;;;18.30;10.30;;;;;;;-1.01;90.55;98662.30;126601;1290;112487;-76
2022/12/12 04:29:49;;;;;;;19.30;10.00;;;;;;;-1.01;89.65;98663.19;126357;1283;112615;-77
2022/12/12 04:33:00;;;;;;;25.00;13.60;;;;;;;-1.03;89.29;98665.27;126453;1284;112466;-76
2022/12/12 04:36:05;;;;;;;24.10;11.40;;;;;;;-1.09;88.90;98660.30;126234;1277;112514;-76
2022/12/12 04:39:11;;;;;;;24.40;12.40;;;;;;;-1.13;88.93;98654.93;126314;1294;111963;-76
2022/12/12 04:42:21;;;;;;;18.80;10.80;;;;;;;-1.18;88.79;98651.77;126313;1283;112461;-75
2022/12/12 04:45:30;;;;;;;19.10;10.80;;;;;;;-1.17;89.17;98653.11;126312;1287;113652;-75
2022/12/12 04:48:37;;;;;;;19.90;10.50;;;;;;;-1.12;89.36;98651.55;126200;1293;112486;-78
2022/12/12 04:51:44;;;;;;;48.50;26.40;;;;;;;-1.07;88.88;98650.09;126320;1284;112533;-74
2022/12/12 04:54:52;;;;;;;53.30;27.10;;;;;;;-1.02;89.06;98647.07;126340;1286;112587;-77
2022/12/12 04:57:55;;;;;;;31.20;19.60;;;;;;;-1.05;89.30;98647.11;126227;1285;112428;-76
2022/12/12 05:01:05;;;;;;;22.80;15.60;;;;;;;-1.08;89.26;98648.55;126348;1293;112336;-78
2022/12/12 05:04:12;;;;;;;26.60;16.50;;;;;;;-1.07;89.56;98650.59;126249;1283;111704;-77
2022/12/12 05:07:18;;;;;;;24.50;15.20;;;;;;;-1.05;89.25;98646.96;126254;1301;112664;-77
2022/12/12 05:10:21;;;;;;;54.80;29.80;;;;;;;-1.10;90.17;98645.09;126339;1284;113718;-76
2022/12/12 05:13:28;;;;;;;32.80;19.40;;;;;;;-1.14;90.31;98651.48;126300;1290;111780;-77
2022/12/12 05:16:37;;;;;;;30.80;17.10;;;;;;;-1.14;90.34;98653.27;126299;1285;112579;-76
2022/12/12 05:19:39;;;;;;;22.40;12.90;;;;;;;-1.08;89.97;98650.00;126323;1284;112684;-77
2022/12/12 05:22:42;;;;;;;22.90;12.50;;;;;;;-1.06;89.88;98646.00;126344;1293;100612;-78
2022/12/12 05:25:45;;;;;;;21.40;13.10;;;;;;;-1.01;90.01;98644.89;126308;1290;99341;-75
2022/12/12 05:28:48;;;;;;;135.90;47.80;;;;;;;-1.03;89.67;98645.77;126264;1285;100508;-78
2022/12/12 05:31:50;;;;;;;278.50;114.70;;;;;;;-1.08;89.65;98646.64;126360;1285;99737;-77
2022/12/12 05:34:53;;;;;;;171.90;55.00;;;;;;;-1.07;90.07;98642.59;126379;1278;99463;-77
2022/12/12 05:37:55;;;;;;;523.60;216.30;;;;;;;-1.17;90.39;98643.16;126389;1284;99309;-77
2022/12/12 05:40:58;;;;;;;32.10;17.70;;;;;;;-1.24;90.75;98639.64;126411;1290;107560;-78
2022/12/12 05:44:00;;;;;;;79.40;42.60;;;;;;;-1.27;90.69;98641.98;126263;1285;99374;-77
2022/12/12 05:47:03;;;;;;;27.30;15.90;;;;;;;-1.26;91.04;98643.98;126586;1284;99363;-77
2022/12/12 05:50:07;;;;;;;31.70;18.70;;;;;;;-1.25;91.45;98641.33;126583;1284;100513;-73
2022/12/12 05:53:10;;;;;;;28.40;16.30;;;;;;;-1.26;91.84;98639.16;126393;1291;100093;-76
2022/12/12 05:56:13;;;;;;;126.80;59.90;;;;;;;-1.26;92.03;98640.14;126386;1284;99346;-77
2022/12/12 05:59:16;;;;;;;109.30;45.90;;;;;;;-1.31;91.88;98636.38;126716;1291;99803;-77
2022/12/12 06:02:18;;;;;;;44.80;26.70;;;;;;;-1.33;92.45;98637.59;126542;1286;99418;-77
2022/12/12 06:05:23;;;;;;;31.60;16.60;;;;;;;-1.30;93.07;98639.23;126575;1284;107504;-77
2022/12/12 06:08:26;;;;;;;30.20;15.50;;;;;;;-1.27;92.92;98647.23;126611;1284;99472;-77
2022/12/12 06:11:29;;;;;;;28.90;15.00;;;;;;;-1.24;93.36;98647.69;126403;1285;100505;-78
2022/12/12 06:14:32;;;;;;;32.70;19.00;;;;;;;-1.16;93.45;98646.02;126419;1284;99870;-76
2022/12/12 06:17:35;;;;;;;34.90;18.20;;;;;;;-1.09;92.69;98645.71;126474;1285;99380;-77
2022/12/12 06:20:38;;;;;;;29.10;15.80;;;;;;;-1.14;91.83;98650.81;126452;1284;99541;-77
2022/12/12 06:23:42;;;;;;;26.00;14.70;;;;;;;-1.19;91.97;98656.02;126398;1280;107241;-76
2022/12/12 06:26:45;;;;;;;59.90;27.10;;;;;;;-1.26;91.92;98653.80;126375;1284;103895;-77
2022/12/12 06:29:48;;;;;;;28.50;15.50;;;;;;;-1.32;92.20;98652.31;126472;1283;99395;-77
2022/12/12 06:32:50;;;;;;;35.40;21.30;;;;;;;-1.35;92.46;98653.05;126534;1284;99460;-78
2022/12/12 06:36:06;;;;;;;33.70;18.10;;;;;;;-1.29;92.72;98655.43;126610;1285;99334;-78
2022/12/12 06:39:11;;;;;;;30.60;17.40;;;;;;;-1.23;92.84;98655.80;126465;1287;107062;-77
2022/12/12 06:42:14;;;;;;;25.50;15.40;;;;;;;-1.21;92.54;98658.08;126618;1284;99338;-76
2022/12/12 06:45:17;;;;;;;29.60;16.40;;;;;;;-1.18;92.61;98661.23;126589;1284;99344;-77
2022/12/12 06:48:19;;;;;;;34.70;19.10;;;;;;;-1.24;92.13;98664.79;126534;1284;99763;-77
2022/12/12 06:51:25;;;;;;;32.90;17.70;;;;;;;-1.23;92.42;98664.55;126531;1284;99773;-73
2022/12/12 06:54:28;;;;;;;25.70;14.20;;;;;;;-1.17;92.65;98659.53;126292;1280;107370;-76
2022/12/12 06:57:31;;;;;;;24.70;14.40;;;;;;;-1.11;92.45;98660.71;126288;1290;99372;-77
2022/12/12 07:00:34;;;;;;;23.90;14.00;;;;;;;-1.01;92.46;98657.09;126480;1287;100422;-76
2022/12/12 07:03:36;;;;;;;30.60;17.20;;;;;;;-0.92;92.35;98664.64;126409;1286;100410;-75
2022/12/12 07:06:39;;;;;;;75.90;41.60;;;;;;;-0.94;92.06;98662.84;126758;1278;99439;-76
2022/12/12 07:09:42;;;;;;;32.60;20.20;;;;;;;-0.94;92.13;98664.98;126357;1286;99425;-76
2022/12/12 07:12:45;;;;;;;37.60;18.80;;;;;;;-0.93;92.16;98665.92;126520;1292;99430;-76
2022/12/12 07:15:49;;;;;;;33.00;17.60;;;;;;;-0.98;91.76;98668.76;126582;1284;100492;-76
2022/12/12 07:18:52;;;;;;;29.50;15.80;;;;;;;-1.03;92.04;98671.41;126678;1284;99860;-76
2022/12/12 07:21:54;;;;;;;29.10;16.10;;;;;;;-1.13;92.13;98672.04;126360;1287;99447;-78
2022/12/12 07:24:57;;;;;;;31.10;16.30;;;;;;;-1.15;92.35;98671.27;126394;1283;100502;-74
2022/12/12 07:27:59;;;;;;;28.60;15.60;;;;;;;-1.18;92.54;98676.89;126458;1277;99465;-80
2022/12/12 07:31:06;;;;;;;50.10;28.20;;;;;;;-1.16;92.70;98671.40;126264;1294;99430;-77
2022/12/12 07:34:09;;;;;;;52.30;26.50;;;;;;;-1.09;93.16;98667.82;126393;1277;108787;-77
2022/12/12 07:37:12;;;;;;;24.40;14.10;;;;;;;-0.97;93.14;98673.42;126400;1291;99364;-75
2022/12/12 07:40:14;;;;;;;39.00;19.10;;;;;;;-0.98;92.61;98677.83;126292;1284;100507;-73
2022/12/12 07:43:17;;;;;;;29.30;14.60;;;;;;;-0.95;92.55;98676.15;126304;1301;99605;-76
2022/12/12 07:46:22;;;;;;;25.50;14.30;;;;;;;-0.85;92.52;98678.55;126488;1292;99340;-77
2022/12/12 07:49:25;;;;;;;31.30;16.60;;;;;;;-0.79;92.31;98681.42;126444;1293;109294;-77
2022/12/12 07:52:27;;;;;;;30.80;16.40;;;;;;;-0.82;92.14;98680.55;126532;1292;100417;-74
2022/12/12 07:55:30;;;;;;;98.40;42.20;;;;;;;-0.82;91.96;98676.08;126429;1277;99367;-78
2022/12/12 07:58:34;;;;;;;47.50;22.50;;;;;;;-0.81;92.02;98682.08;126422;1284;99399;-77
2022/12/12 08:01:37;;;;;;;38.00;20.60;;;;;;;-0.77;92.17;98679.81;126411;1284;107551;-76
2022/12/12 08:04:40;;;;;;;64.80;37.90;;;;;;;-0.66;92.04;98675.86;126464;1284;107549;-78
2022/12/12 08:07:43;;;;;;;35.90;18.70;;;;;;;-0.58;91.86;98677.66;126390;1276;99767;-78
2022/12/12 08:10:45;;;;;;;26.60;13.50;;;;;;;-0.62;91.63;98680.48;126460;1287;99434;-78
2022/12/12 08:13:49;;;;;;;36.10;19.50;;;;;;;-0.69;91.80;98679.56;126510;1285;100579;-79
2022/12/12 08:16:52;;;;;;;21.00;13.20;;;;;;;-0.69;91.65;98684.62;126459;1278;99487;-78
2022/12/12 08:19:55;;;;;;;21.50;13.50;;;;;;;-0.64;92.21;98688.77;126487;1284;99719;-78
2022/12/12 08:22:58;;;;;;;20.80;12.40;;;;;;;-0.56;92.17;98690.09;126552;1289;100007;-76
2022/12/12 08:26:04;;;;;;;21.00;13.00;;;;;;;-0.48;91.99;98686.45;126575;1284;107788;-76
2022/12/12 08:29:07;;;;;;;16.80;10.30;;;;;;;-0.39;91.72;98691.40;126619;1292;107234;-76
2022/12/12 08:32:09;;;;;;;18.40;10.80;;;;;;;-0.33;91.66;98688.29;126412;1277;100505;-76
2022/12/12 08:35:12;;;;;;;15.30;9.30;;;;;;;-0.33;91.24;98690.90;126546;1280;99340;-77
2022/12/12 08:38:15;;;;;;;21.20;11.40;;;;;;;-0.36;91.26;98691.65;126318;1283;99334;-77
2022/12/12 08:41:18;;;;;;;18.70;10.30;;;;;;;-0.37;91.43;98692.23;126252;1278;99337;-75
2022/12/12 08:44:21;;;;;;;28.40;14.10;;;;;;;-0.29;91.53;98684.45;126508;1284;99366;-76
2022/12/12 08:47:24;;;;;;;21.60;13.70;;;;;;;-0.21;91.13;98682.20;126502;1292;99351;-76
2022/12/12 08:50:27;;;;;;;17.40;8.00;;;;;;;-0.17;90.94;98690.84;126409;1287;99387;-77
2022/12/12 08:53:29;;;;;;;14.80;8.50;;;;;;;-0.28;90.40;98688.94;126415;1287;99387;-76
2022/12/12 08:56:32;;;;;;;14.20;8.40;;;;;;;-0.32;90.56;98681.36;126303;1284;100009;-77
2022/12/12 08:59:34;;;;;;;15.80;9.10;;;;;;;-0.31;90.73;98688.61;126610;1284;99476;-76
2022/12/12 09:02:37;;;;;;;14.60;8.90;;;;;;;-0.31;90.80;98688.99;126649;1285;99397;-77
2022/12/12 09:05:43;;;;;;;15.00;8.40;;;;;;;-0.24;90.82;98684.60;126456;1292;99683;-76
2022/12/12 09:08:52;;;;;;;16.90;9.20;;;;;;;-0.16;90.73;98685.35;126360;1284;99424;-76
2022/12/12 09:11:54;;;;;;;14.40;8.70;;;;;;;-0.04;90.56;98685.75;126337;1285;99345;-76
2022/12/12 09:14:57;;;;;;;15.40;10.00;;;;;;;0.05;89.81;98689.25;126385;1286;101311;-75
2022/12/12 09:18:00;;;;;;;17.90;11.60;;;;;;;0.12;90.24;98687.92;126317;1290;99705;-77
2022/12/12 09:21:03;;;;;;;17.30;8.70;;;;;;;0.17;89.81;98686.85;126289;1277;99396;-79
2022/12/12 09:24:07;;;;;;;20.40;10.90;;;;;;;0.19;89.64;98686.50;126492;1285;99429;-78
2022/12/12 09:27:10;;;;;;;14.20;7.70;;;;;;;0.29;89.33;98685.73;126402;1283;99415;-78
2022/12/12 09:30:13;;;;;;;19.20;10.70;;;;;;;0.33;88.68;98684.13;126405;1294;100520;-79
2022/12/12 09:33:18;;;;;;;17.90;9.40;;;;;;;0.40;88.96;98688.11;126448;1283;99420;-79
2022/12/12 09:36:21;;;;;;;31.30;17.60;;;;;;;0.46;88.92;98684.65;126584;1285;99305;-78
2022/12/12 09:39:23;;;;;;;18.90;11.10;;;;;;;0.56;89.06;98690.80;126614;1284;100893;-77
2022/12/12 09:42:28;;;;;;;21.90;11.20;;;;;;;0.58;88.49;98688.71;126538;1291;100507;-78
2022/12/12 09:45:35;;;;;;;25.60;15.60;;;;;;;0.57;88.42;98689.20;126427;1277;99479;-75
2022/12/12 09:48:43;;;;;;;90.00;47.40;;;;;;;0.64;88.78;98695.71;126438;1293;99322;-78
2022/12/12 09:51:49;;;;;;;44.00;22.90;;;;;;;0.73;88.50;98697.92;126714;1287;99355;-79
2022/12/12 09:54:52;;;;;;;35.80;21.10;;;;;;;0.88;88.52;98699.47;126571;1300;99407;-78
2022/12/12 09:58:01;;;;;;;17.30;9.40;;;;;;;0.99;87.71;98696.52;126626;1284;99359;-79
2022/12/12 10:01:13;;;;;;;18.90;9.50;;;;;;;0.95;86.49;98697.54;126561;1284;99338;-78
2022/12/12 10:04:23;;;;;;;15.80;9.80;;;;;;;0.85;86.63;98699.95;126440;1285;99370;-78
2022/12/12 10:07:38;;;;;;;26.90;14.60;;;;;;;0.84;87.22;98699.48;126418;1287;99378;-78
2022/12/12 10:10:43;;;;;;;19.20;10.20;;;;;;;0.85;86.99;98700.61;126447;1294;100529;-79
2022/12/12 10:13:46;;;;;;;20.20;10.20;;;;;;;0.87;87.29;98699.23;126427;1283;99401;-77
2022/12/12 10:16:49;;;;;;;15.50;8.50;;;;;;;0.98;87.12;98696.73;126357;1294;99366;-78
2022/12/12 10:19:55;;;;;;;35.40;22.60;;;;;;;1.01;87.01;98697.20;126396;1292;100526;-78
2022/12/12 10:23:04;;;;;;;17.70;9.40;;;;;;;1.16;87.32;98699.95;126623;1283;100493;-78
2022/12/12 10:26:14;;;;;;;23.50;13.50;;;;;;;1.16;86.66;98701.45;126512;1287;99363;-78
2022/12/12 10:29:20;;;;;;;19.20;10.20;;;;;;;1.10;86.10;98706.75;126391;1287;99453;-79
2022/12/12 10:32:37;;;;;;;17.60;9.50;;;;;;;1.00;86.06;98706.19;126569;1277;99364;-78
2022/12/12 10:35:49;;;;;;;25.60;12.90;;;;;;;0.90;86.02;98703.05;126369;1287;100490;-79
2022/12/12 10:39:02;;;;;;;;;;;;;;;0.85;86.93;98701.52;126526;1277;100503;-78
2022/12/12 10:42:15;;;;;;;26.30;13.20;;;;;;;0.90;86.37;98704.27;126539;1292;99326;-79
2022/12/12 10:45:44;;;;;;;32.10;14.30;;;;;;;0.87;86.08;98707.65;126500;1292;100528;-79
2022/12/12 10:48:48;;;;;;;36.90;17.60;;;;;;;0.94;86.56;98707.20;126455;1290;100616;-78
2022/12/12 10:51:54;;;;;;;30.80;16.20;;;;;;;0.97;85.78;98704.36;126374;1290;99329;-78
2022/12/12 10:54:59;;;;;;;35.20;19.80;;;;;;;0.85;85.59;98699.09;126480;1284;99425;-78
2022/12/12 10:58:04;;;;;;;35.50;17.70;;;;;;;0.94;86.42;98699.00;126384;1277;100537;-78
2022/12/12 11:01:16;;;;;;;26.60;14.90;;;;;;;1.06;86.77;98698.50;126430;1301;100608;-77
2022/12/12 11:04:20;;;;;;;23.70;12.90;;;;;;;1.20;86.26;98695.59;126536;1284;100512;-78
2022/12/12 11:07:23;;;;;;;38.20;19.10;;;;;;;1.17;85.24;98694.06;126450;1293;100454;-78
2022/12/12 11:10:28;;;;;;;36.70;20.10;;;;;;;1.25;85.66;98696.20;126456;1284;99346;-78
2022/12/12 11:13:32;;;;;;;19.90;12.90;;;;;;;1.37;85.35;98693.91;126420;1286;99346;-79
2022/12/12 11:16:43;;;;;;;60.50;28.00;;;;;;;1.49;86.06;98692.16;126454;1285;100025;-79
2022/12/12 11:19:46;;;;;;;17.30;10.50;;;;;;;1.68;85.77;98694.38;126479;1283;100487;-78
2022/12/12 11:22:52;;;;;;;26.20;12.70;;;;;;;1.77;85.40;98689.70;126468;1284;100540;-77
2022/12/12 11:25:56;;;;;;;28.30;15.70;;;;;;;1.84;84.71;98693.70;126382;1287;99375;-76
2022/12/12 11:29:02;;;;;;;18.60;12.30;;;;;;;1.77;84.35;98694.10;126435;1293;99429;-80
2022/12/12 11:32:10;;;;;;;12.30;8.40;;;;;;;1.83;84.55;98692.73;126549;1291;100509;-79
2022/12/12 11:35:25;;;;;;;12.10;7.40;;;;;;;1.84;84.36;98697.37;126485;1294;100617;-76
2022/12/12 11:38:31;;;;;;;12.50;8.20;;;;;;;1.83;84.16;98699.58;126382;1286;99423;-79
2022/12/12 11:41:58;;;;;;;12.30;8.20;;;;;;;1.70;82.69;98704.39;126382;1285;99347;-77
2022/12/12 11:45:18;;;;;;;14.40;8.00;;;;;;;1.52;83.58;98704.34;126487;1284;100379;-78
2022/12/12 11:48:35;;;;;;;13.10;8.90;;;;;;;1.45;84.03;98705.34;126428;1294;99411;-78
2022/12/12 11:51:40;;;;;;;15.50;7.90;;;;;;;1.42;84.85;98704.42;126478;1284;99475;-78
2022/12/12 11:54:43;;;;;;;15.30;9.40;;;;;;;1.43;84.92;98708.80;126378;1301;99337;-78
2022/12/12 11:58:06;;;;;;;9.80;6.70;;;;;;;1.51;85.11;98705.49;126471;1294;99362;-78
2022/12/12 12:01:18;;;;;;;15.00;8.90;;;;;;;1.55;84.81;98704.77;126371;1291;99359;-78
2022/12/12 12:04:39;;;;;;;11.70;6.90;;;;;;;1.62;84.55;98709.29;126334;1284;99317;-78
2022/12/12 12:07:53;;;;;;;12.00;7.80;;;;;;;1.53;83.64;98709.34;126368;1292;99458;-78
2022/12/12 12:11:09;;;;;;;12.30;7.30;;;;;;;1.49;84.47;98707.27;126428;1283;99346;-78
2022/12/12 12:14:25;;;;;;;12.30;8.30;;;;;;;1.48;84.16;98714.73;126390;1286;99694;-78
2022/12/12 12:17:42;;;;;;;13.80;8.50;;;;;;;1.37;84.00;98716.68;126624;1284;99371;-76
2022/12/12 12:21:05;;;;;;;12.30;8.20;;;;;;;1.30;84.28;98714.52;126408;1293;99465;-71
2022/12/12 12:24:31;;;;;;;12.80;8.60;;;;;;;1.21;84.38;98713.15;126488;1284;99362;-70
2022/12/12 12:27:40;;;;;;;28.00;22.10;;;;;;;1.17;84.44;98712.61;126370;1301;99386;-73
2022/12/12 12:30:53;;;;;;;12.60;8.60;;;;;;;1.21;84.38;98706.58;126108;1281;99363;-73
2022/12/12 12:34:09;;;;;;;11.70;8.00;;;;;;;1.19;84.28;98708.91;126368;1293;99328;-74
2022/12/12 12:37:27;;;;;;;14.60;9.20;;;;;;;1.22;84.91;98706.66;126349;1289;99981;-72
2022/12/12 12:40:44;;;;;;;19.20;12.20;;;;;;;1.16;84.57;98709.73;126421;1284;99412;-73
2022/12/12 12:44:02;;;;;;;20.10;11.80;;;;;;;1.03;84.43;98708.20;126226;1284;99489;-72
2022/12/12 12:47:20;;;;;;;14.70;10.10;;;;;;;1.03;85.12;98704.95;126182;1285;99688;-73
2022/12/12 12:50:26;;;;;;;21.20;10.80;;;;;;;1.03;85.04;98707.21;126359;1292;99350;-72
2022/12/12 12:53:36;;;;;;;13.40;9.40;;;;;;;1.06;85.03;98711.27;126351;1285;99405;-74
2022/12/12 12:56:46;;;;;;;17.10;9.90;;;;;;;1.11;84.59;98713.17;126336;1284;99425;-72
2022/12/12 12:59:52;;;;;;;35.10;20.70;;;;;;;1.09;84.39;98714.92;126335;1292;99417;-74
2022/12/12 13:02:59;;;;;;;35.50;19.00;;;;;;;1.01;84.50;98715.19;126338;1290;99317;-74
2022/12/12 13:06:11;;;;;;;18.70;11.10;;;;;;;0.96;84.82;98716.00;126305;1277;99333;-73
2022/12/12 13:09:25;;;;;;;25.90;15.10;;;;;;;0.91;84.82;98718.70;126427;1284;99525;-75
2022/12/12 13:12:34;;;;;;;23.30;13.60;;;;;;;0.90;85.23;98722.32;126177;1285;99436;-73
2022/12/12 13:15:40;;;;;;;21.70;11.90;;;;;;;0.92;84.85;98726.31;126357;1286;99333;-73
2022/12/12 13:18:47;;;;;;;39.80;21.20;;;;;;;0.94;84.94;98725.41;126290;1277;99385;-72
2022/12/12 13:21:58;;;;;;;40.10;19.30;;;;;;;0.94;84.78;98724.25;126318;1287;99349;-75
2022/12/12 13:25:10;;;;;;;19.00;11.00;;;;;;;0.92;84.86;98725.60;125678;1292;1162772;-75
2022/12/12 13:28:17;;;;;;;19.40;11.30;;;;;;;0.88;84.85;98728.24;126383;1284;99397;-72
2022/12/12 13:31:41;;;;;;;20.10;10.70;;;;;;;0.85;84.98;98733.70;126366;1292;100499;-76
2022/12/12 13:34:48;;;;;;;25.20;13.30;;;;;;;0.77;84.95;98735.40;126314;1285;100535;-73
2022/12/12 13:37:53;;;;;;;18.60;10.10;;;;;;;0.69;84.85;98744.70;126494;1285;100537;-76
2022/12/12 13:40:58;;;;;;;39.60;18.60;;;;;;;0.69;85.28;98747.47;126416;1301;99367;-73
2022/12/12 13:44:00;;;;;;;29.60;16.50;;;;;;;0.73;85.23;98749.94;126484;1277;100424;-74
2022/12/12 13:47:09;;;;;;;20.70;12.30;;;;;;;0.70;85.50;98758.21;126340;1284;100491;-74
2022/12/12 13:50:21;;;;;;;21.30;13.90;;;;;;;0.76;85.72;98757.36;126356;1284;100490;-72
2022/12/12 13:53:23;;;;;;;21.50;14.40;;;;;;;0.78;85.50;98761.05;126389;1281;100500;-74
2022/12/12 13:56:34;;;;;;;17.70;9.80;;;;;;;0.70;85.44;98761.73;126309;1287;99365;-75
2022/12/12 14:00:14;;;;;;;27.00;16.50;;;;;;;0.66;85.68;98764.49;126215;1277;99398;-73
2022/12/12 14:03:33;;;;;;;20.70;10.70;;;;;;;0.61;85.80;98771.06;126186;1284;100415;-75
2022/12/12 14:06:36;;;;;;;24.00;14.80;;;;;;;0.64;85.96;98772.08;126223;1292;100528;-75
2022/12/12 14:09:43;;;;;;;23.00;15.00;;;;;;;0.60;85.61;98773.75;126415;1293;99327;-76
2022/12/12 14:12:46;;;;;;;21.10;14.10;;;;;;;0.60;85.79;98773.77;126331;1292;99432;-73
2022/12/12 14:15:58;;;;;;;25.10;15.40;;;;;;;0.58;85.88;98776.21;126299;1277;100493;-75
2022/12/12 14:19:03;;;;;;;;;;;;;;;0.57;85.93;98775.38;126405;1290;100493;-75
2022/12/12 14:22:05;;;;;;;37.10;14.20;;;;;;;0.60;85.92;98779.91;126379;1283;99373;-73
2022/12/12 14:25:19;;;;;;;15.20;8.60;;;;;;;0.61;85.89;98784.15;126326;1293;100680;-73
2022/12/12 14:28:25;;;;;;;18.20;10.20;;;;;;;0.61;85.77;98782.61;126382;1290;99357;-76